Time;durP1;ratioP1;P1;durP2;ratioP2;P2;SDS_P1;SDS_P2;PMS_P1;PMS_P2;Temp;Humidity;BMP_temperature;BMP_pressure;BME280_temperature;BME280_humidity;BME280_pressure;Samples;Min_cycle;Max_cycle;Signal;HPM_P1;HPM_P2
2023/03/29 00:00:22;;;;;;;1.40;1.30;;;20.50;61.90;;;;;;5015440;28;20554;-85
2023/03/29 00:02:50;;;;;;;1.10;0.90;;;20.40;61.80;;;;;;5015563;28;20947;-84
2023/03/29 00:05:21;;;;;;;1.20;1.10;;;20.40;61.80;;;;;;5015682;28;20447;-88
2023/03/29 00:07:53;;;;;;;3.00;1.00;;;20.50;61.90;;;;;;5015547;28;20439;-85
2023/03/29 00:10:22;;;;;;;1.13;0.93;;;20.50;61.90;;;;;;5015398;28;20471;-87
2023/03/29 00:12:51;;;;;;;1.20;1.00;;;20.40;61.80;;;;;;5015451;28;20998;-85
2023/03/29 00:15:18;;;;;;;1.30;1.20;;;20.40;61.80;;;;;;5015481;28;20454;-87
2023/03/29 00:17:45;;;;;;;1.17;1.00;;;20.60;62.00;;;;;;5015483;28;20456;-87
2023/03/29 00:20:14;;;;;;;1.20;1.07;;;20.40;61.80;;;;;;5015319;28;20443;-84
2023/03/29 00:22:42;;;;;;;1.10;0.90;;;20.40;61.80;;;;;;5015030;28;20451;-85
2023/03/29 00:25:10;;;;;;;1.80;1.10;;;20.40;61.80;;;;;;5015207;28;20446;-85
2023/03/29 00:27:37;;;;;;;1.17;1.00;;;20.40;61.80;;;;;;5015195;28;20938;-85
2023/03/29 00:30:05;;;;;;;2.03;1.07;;;20.40;61.80;;;;;;5015130;28;20442;-87
2023/03/29 00:32:32;;;;;;;1.73;1.27;;;20.40;61.80;;;;;;5015058;28;20479;-85
2023/03/29 00:34:59;;;;;;;1.53;1.43;;;20.40;61.80;;;;;;5015226;28;20439;-87
2023/03/29 00:37:28;;;;;;;1.10;0.90;;;20.40;61.80;;;;;;5015119;28;21127;-85
2023/03/29 00:39:55;;;;;;;1.13;1.00;;;20.40;61.80;;;;;;5014932;28;20463;-87
2023/03/29 00:42:23;;;;;;;1.10;1.00;;;20.40;61.80;;;;;;5014852;28;20456;-87
2023/03/29 00:45:03;;;;;;;1.40;1.30;;;20.40;61.80;;;;;;5015048;28;20461;-84
2023/03/29 00:47:34;;;;;;;1.17;0.93;;;20.50;61.90;;;;;;5014802;28;20458;-87
2023/03/29 00:50:06;;;;;;;1.40;1.30;;;20.40;61.80;;;;;;5015006;28;20439;-84
2023/03/29 00:52:36;;;;;;;1.30;1.20;;;20.40;61.80;;;;;;5014710;28;20478;-85
2023/03/29 00:55:08;;;;;;;1.10;1.00;;;20.40;61.80;;;;;;5014705;28;20443;-85
2023/03/29 00:57:37;;;;;;;1.10;0.93;;;20.40;61.80;;;;;;5014617;28;20443;-87
2023/03/29 01:00:08;;;;;;;1.00;0.80;;;20.40;61.80;;;;;;5014518;28;20471;-85
2023/03/29 01:02:39;;;;;;;1.20;1.00;;;20.30;61.70;;;;;;5014437;28;20458;-85
2023/03/29 01:05:09;;;;;;;1.33;1.20;;;20.40;61.80;;;;;;5014514;28;20451;-84
2023/03/29 01:07:46;;;;;;;1.10;0.90;;;20.30;61.70;;;;;;5014486;28;20443;-87
2023/03/29 01:10:18;;;;;;;1.13;1.00;;;20.30;61.70;;;;;;5014358;28;20467;-85
2023/03/29 01:12:50;;;;;;;1.10;0.97;;;20.40;61.80;;;;;;5014379;28;21048;-88
2023/03/29 01:15:19;;;;;;;1.70;1.00;;;20.30;61.70;;;;;;5014443;28;20858;-85
2023/03/29 01:17:49;;;;;;;1.40;1.20;;;20.30;61.70;;;;;;5014323;28;20439;-88
2023/03/29 01:20:21;;;;;;;1.10;0.90;;;20.30;61.70;;;;;;5014268;28;20450;-87
2023/03/29 01:23:14;;;;;;;1.30;1.20;;;20.30;61.70;;;;;;5013753;28;20541;-88
2023/03/29 01:25:50;;;;;;;1.10;1.00;;;20.30;61.70;;;;;;5014289;28;20466;-87
2023/03/29 01:28:23;;;;;;;1.50;1.30;;;20.30;61.70;;;;;;5014237;28;20441;-85
2023/03/29 01:30:55;;;;;;;1.20;1.00;;;20.30;61.70;;;;;;5014165;28;20440;-84
2023/03/29 01:33:27;;;;;;;1.30;1.20;;;20.30;61.70;;;;;;5013969;28;20585;-84
2023/03/29 01:36:01;;;;;;;2.03;1.23;;;20.30;61.70;;;;;;5013964;28;20450;-86
2023/03/29 01:38:34;;;;;;;1.20;1.00;;;20.30;61.70;;;;;;5013950;28;20454;-86
2023/03/29 01:41:02;;;;;;;1.33;0.80;;;20.30;61.70;;;;;;5013842;28;20463;-85
2023/03/29 01:43:35;;;;;;;1.17;1.00;;;20.30;61.80;;;;;;5013814;28;20526;-85
2023/03/29 01:46:07;;;;;;;1.47;1.00;;;20.30;61.80;;;;;;5014056;28;20450;-86
2023/03/29 01:48:42;;;;;;;1.03;0.80;;;20.30;61.80;;;;;;5013999;28;20439;-85
2023/03/29 01:51:14;;;;;;;1.03;0.83;;;20.30;61.80;;;;;;5013811;28;20435;-85
2023/03/29 01:53:46;;;;;;;1.30;1.07;;;20.30;61.80;;;;;;5013586;28;20487;-85
2023/03/29 01:56:16;;;;;;;1.10;0.87;;;20.30;61.80;;;;;;5013742;28;20930;-85
2023/03/29 01:58:48;;;;;;;1.20;1.00;;;20.30;61.80;;;;;;5013617;28;20935;-85
2023/03/29 02:01:21;;;;;;;1.43;1.17;;;20.30;61.80;;;;;;5013438;28;20471;-87
2023/03/29 02:03:53;;;;;;;1.57;1.00;;;20.30;61.70;;;;;;5013725;28;20462;-86
2023/03/29 02:06:25;;;;;;;1.13;0.90;;;20.30;61.70;;;;;;5013904;28;20861;-88
2023/03/29 02:08:53;;;;;;;1.30;1.20;;;20.30;61.70;;;;;;5013634;28;20451;-87
2023/03/29 02:11:22;;;;;;;4.60;1.00;;;20.30;61.70;;;;;;5013570;28;20468;-88
2023/03/29 02:13:50;;;;;;;1.30;1.10;;;20.30;61.70;;;;;;5013728;28;20479;-88
2023/03/29 02:16:17;;;;;;;1.30;0.90;;;20.30;61.70;;;;;;5013567;28;20448;-88
2023/03/29 02:18:47;;;;;;;1.07;0.90;;;20.30;61.70;;;;;;5013348;28;20803;-84
2023/03/29 02:21:20;;;;;;;1.23;1.00;;;20.30;61.70;;;;;;5013462;28;20440;-88
2023/03/29 02:23:49;;;;;;;1.47;1.00;;;20.20;61.50;;;;;;5013499;28;20452;-88
2023/03/29 02:26:18;;;;;;;1.33;1.20;;;20.30;61.70;;;;;;5013423;28;20445;-87
2023/03/29 02:28:45;;;;;;;1.10;0.90;;;20.30;61.70;;;;;;5013419;28;20954;-88
2023/03/29 02:31:20;;;;;;;1.20;0.93;;;20.20;61.50;;;;;;5013243;28;20438;-87
2023/03/29 02:33:51;;;;;;;1.20;1.10;;;20.30;61.70;;;;;;5013344;28;20496;-85
2023/03/29 02:36:22;;;;;;;1.20;0.90;;;20.20;61.60;;;;;;5016985;28;20439;-85
2023/03/29 02:38:49;;;;;;;1.10;1.00;;;20.40;61.80;;;;;;5017399;28;20439;-88
2023/03/29 02:41:16;;;;;;;1.10;0.93;;;20.30;61.70;;;;;;5017145;28;20435;-88
2023/03/29 02:43:46;;;;;;;1.10;1.00;;;20.20;61.60;;;;;;5017116;28;20493;-85
2023/03/29 02:46:16;;;;;;;1.40;0.80;;;20.20;61.50;;;;;;5017136;28;20965;-84
2023/03/29 02:48:46;;;;;;;1.20;0.90;;;20.20;61.50;;;;;;5017180;28;20435;-88
2023/03/29 02:51:16;;;;;;;1.10;0.90;;;20.20;61.50;;;;;;5016999;28;20450;-84
2023/03/29 02:53:48;;;;;;;1.20;1.00;;;20.20;61.50;;;;;;5016970;28;20490;-84
2023/03/29 02:56:15;;;;;;;1.50;1.10;;;20.20;61.60;;;;;;5017530;28;20573;-87
2023/03/29 02:58:42;;;;;;;1.30;1.10;;;20.20;61.50;;;;;;5017280;28;20439;-84
2023/03/29 03:01:10;;;;;;;1.50;1.00;;;20.20;61.50;;;;;;5017215;28;20479;-85
2023/03/29 03:03:38;;;;;;;3.63;0.90;;;20.20;61.60;;;;;;5017317;28;20443;-85
2023/03/29 03:06:06;;;;;;;1.20;1.00;;;20.20;61.60;;;;;;5017308;28;20946;-88
2023/03/29 03:08:32;;;;;;;1.20;1.00;;;20.20;61.50;;;;;;5017948;28;20455;-88
2023/03/29 03:10:59;;;;;;;1.00;0.80;;;20.20;61.50;;;;;;5017319;28;20470;-87
2023/03/29 03:13:26;;;;;;;2.40;0.90;;;20.20;61.50;;;;;;5017135;28;20506;-87
2023/03/29 03:15:53;;;;;;;2.67;0.90;;;20.20;61.50;;;;;;5017298;28;20443;-85
2023/03/29 03:18:20;;;;;;;1.90;1.00;;;20.20;61.50;;;;;;5017720;28;20447;-87
2023/03/29 03:20:56;;;;;;;1.10;0.97;;;20.20;61.50;;;;;;5017165;28;20504;-84
2023/03/29 03:23:23;;;;;;;1.30;1.00;;;20.20;61.50;;;;;;5017398;28;20443;-86
2023/03/29 03:25:51;;;;;;;1.07;0.80;;;20.20;61.60;;;;;;5017011;28;20446;-86
2023/03/29 03:28:18;;;;;;;1.10;0.90;;;20.20;61.50;;;;;;5017394;28;20447;-88
2023/03/29 03:30:45;;;;;;;1.30;0.80;;;20.10;61.40;;;;;;5017685;28;20447;-84
2023/03/29 03:33:12;;;;;;;1.40;1.30;;;20.20;61.50;;;;;;5017360;28;20439;-84
2023/03/29 03:35:39;;;;;;;1.10;0.90;;;20.20;62.40;;;;;;5017445;28;20558;-84
2023/03/29 03:38:07;;;;;;;1.30;1.10;;;20.20;61.50;;;;;;5017470;28;20452;-88
2023/03/29 03:40:34;;;;;;;1.20;1.00;;;20.20;61.50;;;;;;5017942;28;20497;-84
2023/03/29 03:43:01;;;;;;;1.10;0.87;;;20.20;61.50;;;;;;5018580;28;20435;-84
2023/03/29 03:45:28;;;;;;;1.30;0.90;;;20.20;61.50;;;;;;5018976;28;20455;-87
2023/03/29 03:47:54;;;;;;;1.20;0.97;;;20.20;61.50;;;;;;5036000;28;20428;-84
2023/03/29 03:50:21;;;;;;;1.10;1.00;;;20.20;61.50;;;;;;5038498;28;20451;-85
2023/03/29 03:52:48;;;;;;;1.00;0.80;;;20.10;61.40;;;;;;5016569;28;20458;-84
2023/03/29 03:55:17;;;;;;;1.20;1.00;;;20.10;61.50;;;;;;5016363;28;20491;-86
2023/03/29 03:57:44;;;;;;;1.97;1.00;;;20.10;61.40;;;;;;5016424;28;20449;-85
2023/03/29 04:00:17;;;;;;;1.03;0.93;;;20.20;61.50;;;;;;5015967;28;20477;-84
2023/03/29 04:02:44;;;;;;;1.30;1.00;;;20.20;61.50;;;;;;5016033;28;20462;-84
2023/03/29 04:08:34;;;;;;;1.20;1.10;;;20.20;61.60;;;;;;5005317;28;20419;-84
2023/03/29 04:11:03;;;;;;;1.20;0.97;;;20.10;61.50;;;;;;4996207;28;20831;-88
2023/03/29 04:13:30;;;;;;;1.00;0.80;;;20.10;61.40;;;;;;4996446;28;20824;-84
2023/03/29 04:15:56;;;;;;;1.10;0.80;;;20.10;61.40;;;;;;4996135;28;20448;-84
2023/03/29 04:18:24;;;;;;;1.67;0.97;;;20.10;61.50;;;;;;4996520;28;20444;-84
2023/03/29 04:20:51;;;;;;;1.20;0.90;;;20.10;61.50;;;;;;4996240;28;20450;-87
2023/03/29 04:23:18;;;;;;;1.20;0.90;;;20.10;61.40;;;;;;4996177;28;20451;-87
2023/03/29 04:25:45;;;;;;;1.30;1.13;;;20.10;61.40;;;;;;4996024;28;20976;-85
2023/03/29 04:28:13;;;;;;;1.93;1.00;;;20.10;61.40;;;;;;4996133;28;20522;-84
2023/03/29 04:30:40;;;;;;;1.30;1.00;;;20.10;61.40;;;;;;4995918;28;20440;-88
2023/03/29 04:33:07;;;;;;;1.20;1.10;;;20.10;61.40;;;;;;4995888;28;20459;-87
2023/03/29 04:35:34;;;;;;;1.47;1.00;;;20.10;61.40;;;;;;4995722;28;20851;-84
2023/03/29 04:38:00;;;;;;;1.20;0.93;;;20.20;61.50;;;;;;4998291;28;20432;-84
2023/03/29 04:43:51;;;;;;;1.10;0.90;;;20.10;61.40;;;;;;5005550;28;20411;-87
2023/03/29 04:46:17;;;;;;;1.07;0.90;;;20.10;61.50;;;;;;5004283;28;20531;-86
2023/03/29 04:48:44;;;;;;;3.87;1.03;;;20.10;61.50;;;;;;5007447;28;20467;-87
2023/03/29 04:51:12;;;;;;;1.10;0.90;;;20.10;61.40;;;;;;5006792;28;20539;-88
2023/03/29 04:53:39;;;;;;;1.27;1.00;;;20.10;62.30;;;;;;5007760;28;20511;-87
2023/03/29 04:56:09;;;;;;;1.10;0.90;;;20.10;61.40;;;;;;5008158;28;20550;-87
2023/03/29 04:58:36;;;;;;;1.07;0.90;;;20.10;61.40;;;;;;5004696;28;20512;-87
2023/03/29 05:01:05;;;;;;;1.87;1.10;;;20.10;61.40;;;;;;5019598;28;20554;-85
2023/03/29 05:03:33;;;;;;;1.40;1.30;;;20.10;61.40;;;;;;5029524;28;20456;-86
2023/03/29 05:06:05;;;;;;;1.17;1.07;;;20.10;61.40;;;;;;5027503;28;20439;-85
2023/03/29 05:08:33;;;;;;;1.10;1.00;;;20.10;61.40;;;;;;5016729;28;20452;-87
2023/03/29 05:11:00;;;;;;;2.37;1.00;;;20.10;61.40;;;;;;5004975;28;20467;-88
2023/03/29 05:13:27;;;;;;;1.57;1.00;;;20.10;61.40;;;;;;5005081;28;20444;-84
2023/03/29 05:15:55;;;;;;;1.03;0.83;;;20.10;61.50;;;;;;5003469;28;20563;-84
2023/03/29 05:18:24;;;;;;;1.33;1.07;;;20.10;61.40;;;;;;5005071;28;20448;-87
2023/03/29 05:20:51;;;;;;;1.00;0.83;;;20.10;61.40;;;;;;5005512;28;20534;-88
2023/03/29 05:23:19;;;;;;;1.40;0.90;;;20.10;61.50;;;;;;5003646;28;20443;-83
2023/03/29 05:25:47;;;;;;;1.20;1.00;;;20.10;61.50;;;;;;5003986;28;20443;-87
2023/03/29 05:28:14;;;;;;;1.20;0.90;;;20.10;61.50;;;;;;5005551;28;20454;-84
2023/03/29 05:30:41;;;;;;;1.20;1.10;;;20.10;61.50;;;;;;5005114;28;20447;-88
2023/03/29 05:33:17;;;;;;;1.30;1.00;;;20.10;61.60;;;;;;5004357;28;20451;-88
2023/03/29 05:35:45;;;;;;;1.10;0.90;;;20.10;61.50;;;;;;5003224;28;20487;-87
2023/03/29 05:38:31;;;;;;;1.10;0.90;;;20.20;61.60;;;;;;5005499;28;20475;-84
2023/03/29 05:40:59;;;;;;;1.20;0.90;;;20.10;61.60;;;;;;5013272;28;20441;-87
2023/03/29 05:43:26;;;;;;;1.40;1.10;;;20.00;61.40;;;;;;5014554;28;20930;-86
2023/03/29 05:45:53;;;;;;;1.10;1.00;;;20.00;61.50;;;;;;5015367;28;20451;-89
2023/03/29 05:48:21;;;;;;;1.30;0.90;;;20.00;61.50;;;;;;5016271;28;20799;-84
2023/03/29 05:50:51;;;;;;;1.10;1.00;;;20.00;61.50;;;;;;5014859;28;20454;-85
2023/03/29 05:53:18;;;;;;;1.17;0.93;;;20.00;61.50;;;;;;5014757;28;20845;-85
2023/03/29 05:55:46;;;;;;;1.10;1.00;;;20.00;61.40;;;;;;5014219;28;20533;-85
2023/03/29 05:58:14;;;;;;;1.20;1.00;;;20.00;61.50;;;;;;5014491;28;20443;-85
2023/03/29 06:00:41;;;;;;;1.10;1.00;;;20.00;61.40;;;;;;5014300;28;20823;-88
2023/03/29 06:03:16;;;;;;;1.40;1.10;;;20.00;61.50;;;;;;5014900;28;20947;-85
2023/03/29 06:05:42;;;;;;;1.30;1.00;;;20.00;61.50;;;;;;5014774;28;20445;-85
2023/03/29 06:08:10;;;;;;;1.00;0.80;;;20.00;61.60;;;;;;5015211;28;20438;-88
2023/03/29 06:10:37;;;;;;;1.30;1.00;;;20.00;61.60;;;;;;5014530;28;20467;-86
2023/03/29 06:13:04;;;;;;;1.27;1.10;;;20.00;61.50;;;;;;5014806;28;20435;-87
2023/03/29 06:15:31;;;;;;;1.50;0.90;;;20.00;61.60;;;;;;5014516;28;20908;-87
2023/03/29 06:17:58;;;;;;;1.10;1.00;;;20.00;61.60;;;;;;5014365;28;20510;-87
2023/03/29 06:20:25;;;;;;;1.63;1.10;;;20.00;61.70;;;;;;5014808;28;20500;-87
2023/03/29 06:22:52;;;;;;;1.20;1.00;;;20.00;61.80;;;;;;5014946;28;21034;-88
2023/03/29 06:25:20;;;;;;;1.20;1.10;;;20.00;61.80;;;;;;5015187;28;20469;-86
2023/03/29 06:27:48;;;;;;;1.10;0.80;;;20.10;62.00;;;;;;5017475;28;20538;-88
2023/03/29 06:30:16;;;;;;;1.20;1.00;;;20.10;62.20;;;;;;5027120;28;20426;-86
2023/03/29 06:32:43;;;;;;;1.70;1.10;;;20.00;62.10;;;;;;5038647;28;20434;-87
2023/03/29 06:35:10;;;;;;;1.50;1.10;;;20.00;62.30;;;;;;5022886;28;20483;-87
2023/03/29 06:37:39;;;;;;;2.73;0.90;;;20.00;62.40;;;;;;5013371;28;20439;-87
2023/03/29 06:40:08;;;;;;;4.67;0.90;;;20.10;62.60;;;;;;5013113;28;20518;-86
2023/03/29 06:42:37;;;;;;;2.20;1.27;;;20.00;62.60;;;;;;5013489;28;20443;-88
2023/03/29 06:45:04;;;;;;;1.50;1.00;;;20.20;63.00;;;;;;5013150;28;20446;-87
2023/03/29 06:47:31;;;;;;;1.10;0.97;;;20.00;62.80;;;;;;5013277;28;20501;-86
2023/03/29 06:49:58;;;;;;;2.00;1.30;;;20.10;62.90;;;;;;5013125;28;20486;-86
2023/03/29 06:52:25;;;;;;;1.20;1.00;;;20.10;63.20;;;;;;5013431;28;20444;-86
2023/03/29 06:54:52;;;;;;;1.30;1.00;;;20.00;62.90;;;;;;5013339;28;20487;-86
2023/03/29 06:57:18;;;;;;;1.20;1.10;;;20.10;62.90;;;;;;5013207;28;20815;-87
2023/03/29 06:59:47;;;;;;;1.93;1.20;;;20.20;63.00;;;;;;5012842;28;20495;-87
2023/03/29 07:02:16;;;;;;;1.70;0.90;;;20.10;62.90;;;;;;5013258;28;20517;-87
2023/03/29 07:04:44;;;;;;;4.63;1.33;;;20.10;62.90;;;;;;5013107;28;20830;-87
2023/03/29 07:07:18;;;;;;;2.83;1.30;;;20.10;63.00;;;;;;5013262;28;20447;-87
2023/03/29 07:09:52;;;;;;;2.10;1.40;;;20.10;63.20;;;;;;5013168;28;20462;-87
2023/03/29 07:12:19;;;;;;;1.53;1.20;;;20.10;63.10;;;;;;5013212;28;20539;-89
2023/03/29 07:14:48;;;;;;;1.57;1.47;;;20.10;63.10;;;;;;5013068;28;20483;-87
2023/03/29 07:17:15;;;;;;;1.50;1.20;;;20.20;63.30;;;;;;5013108;28;20954;-89
2023/03/29 07:19:49;;;;;;;2.67;2.00;;;20.10;63.10;;;;;;5004025;28;20505;-94
2023/03/29 07:22:42;;;;;;;1.70;1.57;;;20.10;63.00;;;;;;5002993;28;20467;-94
2023/03/29 07:25:11;;;;;;;1.87;1.60;;;20.10;63.20;;;;;;5034295;23;20540;-96
2023/03/29 07:27:39;;;;;;;4.53;2.63;;;20.10;63.20;;;;;;5038800;28;20445;-95
2023/03/29 07:30:13;;;;;;;1.70;1.30;;;20.10;63.10;;;;;;5039641;28;20457;-96
2023/03/29 07:32:43;;;;;;;2.30;2.10;;;20.10;63.20;;;;;;5037640;28;20533;-85
2023/03/29 07:35:11;;;;;;;3.00;1.87;;;20.10;63.30;;;;;;5036085;28;20489;-90
2023/03/29 07:37:38;;;;;;;2.73;1.67;;;20.10;63.30;;;;;;5025628;28;20446;-93
2023/03/29 07:40:23;;;;;;;11.63;6.17;;;20.20;63.30;;;;;;5018430;28;20566;-95
2023/03/29 07:42:52;;;;;;;8.90;4.43;;;20.10;62.80;;;;;;5020687;28;20443;-89
2023/03/29 07:48:11;;;;;;;8.23;4.93;;;20.10;62.90;;;;;;5245226;23;20493;-95
2023/03/29 07:50:39;;;;;;;9.07;3.73;;;20.10;62.90;;;;;;5043212;28;20486;-94
2023/03/29 07:53:06;;;;;;;10.27;3.83;;;20.10;62.90;;;;;;5041900;28;20430;-92
2023/03/29 07:55:33;;;;;;;10.10;4.60;;;20.00;62.90;;;;;;5038840;28;20485;-96
2023/03/29 07:58:15;;;;;;;8.43;3.80;;;20.00;62.80;;;;;;5046586;28;20489;-96
2023/03/29 08:00:43;;;;;;;7.17;4.50;;;20.10;63.00;;;;;;5045696;28;20455;-90
2023/03/29 08:03:12;;;;;;;8.20;4.90;;;20.10;63.00;;;;;;5030577;28;20443;-86
2023/03/29 08:05:39;;;;;;;7.20;4.60;;;20.10;63.00;;;;;;5029439;28;20435;-91
2023/03/29 08:08:09;;;;;;;7.80;5.60;;;20.10;62.80;;;;;;5023967;28;20458;-94
2023/03/29 08:10:41;;;;;;;13.03;5.13;;;20.10;62.80;;;;;;5023179;28;20447;-96
2023/03/29 08:13:18;;;;;;;6.87;4.73;;;20.10;62.60;;;;;;5024960;28;20441;-94
2023/03/29 08:15:57;;;;;;;10.93;4.40;;;20.10;62.70;;;;;;5026391;28;20466;-95
2023/03/29 08:18:26;;;;;;;6.77;3.93;;;20.10;62.70;;;;;;5023446;28;20446;-89
2023/03/29 08:20:54;;;;;;;14.80;4.93;;;20.10;62.70;;;;;;5021633;28;20482;-92
2023/03/29 08:23:24;;;;;;;12.47;4.00;;;20.10;62.90;;;;;;5021329;28;20448;-92
2023/03/29 08:25:52;;;;;;;6.33;4.20;;;20.10;62.80;;;;;;5020641;28;21009;-86
2023/03/29 08:28:19;;;;;;;5.87;3.90;;;20.10;62.80;;;;;;5018120;28;20474;-86
2023/03/29 08:30:46;;;;;;;8.70;4.70;;;20.10;62.90;;;;;;5018571;28;20509;-89
2023/03/29 08:33:15;;;;;;;6.57;3.80;;;20.10;62.80;;;;;;5020736;28;20481;-95
2023/03/29 08:35:43;;;;;;;6.50;4.33;;;20.10;62.80;;;;;;5039754;28;20486;-89
2023/03/29 08:38:11;;;;;;;7.50;4.50;;;20.10;63.00;;;;;;5037592;28;20450;-84
2023/03/29 08:40:40;;;;;;;5.90;4.00;;;20.10;62.90;;;;;;5037768;28;20442;-95
2023/03/29 08:43:20;;;;;;;8.87;4.30;;;20.10;62.80;;;;;;5039119;28;20509;-88
2023/03/29 08:45:58;;;;;;;14.20;4.73;;;20.10;62.80;;;;;;5037833;28;20488;-86
2023/03/29 08:48:28;;;;;;;9.27;5.00;;;20.10;63.00;;;;;;5037945;28;20474;-88
2023/03/29 08:51:01;;;;;;;11.73;4.90;;;20.10;63.10;;;;;;5035688;28;20442;-86
2023/03/29 08:53:35;;;;;;;8.40;5.37;;;20.10;63.00;;;;;;5035129;28;20434;-94
2023/03/29 08:56:07;;;;;;;6.60;4.97;;;20.20;63.10;;;;;;5037908;28;20563;-87
2023/03/29 08:58:36;;;;;;;13.00;5.47;;;20.00;62.80;;;;;;5037783;28;20975;-88
2023/03/29 09:01:07;;;;;;;17.13;6.60;;;20.10;62.80;;;;;;5027770;28;20534;-85
2023/03/29 09:03:38;;;;;;;12.43;6.33;;;20.20;62.90;;;;;;5025475;28;20443;-91
2023/03/29 09:06:08;;;;;;;11.50;6.43;;;20.20;62.90;;;;;;5016056;28;20577;-90
2023/03/29 09:08:40;;;;;;;13.20;6.80;;;20.10;62.90;;;;;;5016006;28;20495;-89
2023/03/29 09:11:28;;;;;;;10.30;5.10;;;20.10;62.80;;;;;;5020477;28;20911;-92
2023/03/29 09:14:07;;;;;;;7.80;5.63;;;20.10;62.90;;;;;;5040106;28;20434;-90
2023/03/29 09:16:43;;;;;;;13.13;7.80;;;20.10;62.90;;;;;;5043853;28;20489;-88
2023/03/29 09:19:20;;;;;;;26.63;10.20;;;20.10;63.20;;;;;;5037038;28;20450;-89
2023/03/29 09:21:55;;;;;;;22.70;10.90;;;20.10;62.70;;;;;;5036550;28;20474;-87
2023/03/29 09:24:42;;;;;;;20.83;10.03;;;20.10;62.70;;;;;;5035901;28;20446;-86
2023/03/29 09:27:14;;;;;;;38.07;10.17;;;20.10;62.70;;;;;;5036617;28;20446;-87
2023/03/29 09:29:52;;;;;;;20.27;9.90;;;20.10;62.60;;;;;;5036377;28;20481;-86
2023/03/29 09:32:22;;;;;;;28.17;9.83;;;20.20;62.70;;;;;;5027388;28;20453;-88
2023/03/29 09:34:56;;;;;;;15.97;9.47;;;20.10;62.80;;;;;;4998659;28;20477;-85
2023/03/29 09:37:30;;;;;;;16.40;7.33;;;20.10;62.80;;;;;;5016342;28;20447;-87
2023/03/29 09:39:57;;;;;;;19.27;8.13;;;20.10;62.80;;;;;;5023806;28;20478;-85
2023/03/29 09:42:27;;;;;;;15.60;8.70;;;20.10;62.80;;;;;;5035480;28;20482;-85
2023/03/29 09:45:02;;;;;;;18.00;8.73;;;20.10;62.90;;;;;;5035986;28;20818;-87
2023/03/29 09:50:22;;;;;;;12.80;8.30;;;20.20;62.80;;;;;;4994935;28;20476;-85
2023/03/29 09:52:51;;;;;;;23.73;10.33;;;20.20;62.80;;;;;;5034119;28;20481;-89
2023/03/29 09:55:21;;;;;;;20.03;9.23;;;20.20;62.70;;;;;;5036392;28;20447;-89
2023/03/29 09:57:49;;;;;;;15.20;8.83;;;20.20;62.50;;;;;;5035754;28;20445;-92
2023/03/29 12:01:45;;;;;;;19.33;10.57;;;20.20;64.40;;;;;;5038144;28;20473;-92
2023/03/29 12:04:21;;;;;;;16.77;8.07;;;20.30;64.70;;;;;;4975578;28;20544;-88
2023/03/29 12:06:54;;;;;;;16.10;9.27;;;20.30;64.60;;;;;;4969581;28;20441;-83
2023/03/29 12:09:29;;;;;;;15.30;9.30;;;20.30;64.80;;;;;;4973372;28;20461;-84
2023/03/29 12:12:03;;;;;;;17.33;10.57;;;20.40;64.80;;;;;;4981817;28;20449;-82
2023/03/29 12:14:41;;;;;;;13.37;9.17;;;20.60;65.00;;;;;;4978443;28;20440;-83
2023/03/29 12:17:14;;;;;;;15.60;9.73;;;20.40;64.70;;;;;;4978118;28;20495;-84
2023/03/29 12:19:48;;;;;;;21.47;9.40;;;20.50;64.70;;;;;;4977040;28;20573;-83
2023/03/29 12:22:15;;;;;;;15.50;8.33;;;20.50;64.80;;;;;;4977031;28;20447;-82
2023/03/29 12:24:45;;;;;;;13.20;9.17;;;20.50;64.80;;;;;;4977000;28;20492;-83
2023/03/29 12:27:22;;;;;;;15.33;9.10;;;20.60;65.00;;;;;;4977207;28;20509;-83
2023/03/29 12:30:13;;;;;;;14.53;9.67;;;20.70;65.10;;;;;;4976724;28;20451;-89
2023/03/29 12:32:51;;;;;;;21.33;11.00;;;20.60;65.00;;;;;;4973222;28;20865;-95
2023/03/29 21:25:08;;;;;;;3.70;3.03;;;20.40;67.40;;;;;;4955387;29;20457;-85
2023/03/29 21:27:37;;;;;;;3.70;2.80;;;20.40;67.40;;;;;;4956052;29;20450;-83
2023/03/29 21:30:08;;;;;;;5.60;3.80;;;20.40;67.10;;;;;;4955883;29;20520;-82
2023/03/29 21:32:35;;;;;;;6.63;3.70;;;20.40;67.00;;;;;;4956772;29;20792;-82
2023/03/29 21:35:02;;;;;;;3.10;2.63;;;20.40;66.90;;;;;;4955983;29;20442;-82
2023/03/29 21:37:29;;;;;;;4.03;3.57;;;20.40;66.80;;;;;;4955631;28;20489;-82
2023/03/29 21:39:55;;;;;;;4.03;2.57;;;20.40;66.80;;;;;;4955174;28;20649;-82
2023/03/29 21:42:22;;;;;;;6.27;3.10;;;20.40;66.70;;;;;;4954052;29;20453;-82
2023/03/29 21:44:50;;;;;;;4.30;2.57;;;20.40;66.70;;;;;;4954054;29;20442;-83
2023/03/29 21:47:17;;;;;;;3.73;3.17;;;20.40;66.70;;;;;;4954419;29;20454;-82
2023/03/29 21:49:44;;;;;;;3.83;2.70;;;20.40;66.70;;;;;;4954149;29;20463;-83
2023/03/29 21:52:12;;;;;;;4.30;3.03;;;20.40;66.60;;;;;;4954226;29;20454;-82
2023/03/29 21:54:39;;;;;;;4.60;2.67;;;20.40;66.70;;;;;;4953948;29;20453;-83
2023/03/29 21:57:05;;;;;;;4.37;3.30;;;20.40;66.70;;;;;;4956174;29;20489;-83
2023/03/29 21:59:32;;;;;;;5.03;3.00;;;20.40;66.60;;;;;;4955112;29;20806;-82
2023/03/29 22:02:00;;;;;;;3.47;2.90;;;20.40;66.60;;;;;;4956201;29;20452;-82
2023/03/29 22:04:29;;;;;;;6.10;2.80;;;20.40;66.60;;;;;;4955949;29;20904;-83
2023/03/29 22:06:55;;;;;;;2.60;2.40;;;20.40;66.60;;;;;;4956102;29;20438;-82
2023/03/29 22:09:24;;;;;;;3.77;2.73;;;20.40;66.60;;;;;;4955868;28;20461;-82
2023/03/29 22:11:51;;;;;;;2.60;2.30;;;20.40;66.60;;;;;;4956034;29;20942;-83
2023/03/29 22:14:18;;;;;;;3.37;2.70;;;20.40;66.60;;;;;;4956155;29;20447;-83
2023/03/29 22:16:45;;;;;;;3.87;3.53;;;20.40;66.60;;;;;;4955644;29;20481;-82
2023/03/29 22:19:14;;;;;;;4.33;3.27;;;20.40;66.60;;;;;;4955576;29;20442;-89
2023/03/29 22:21:41;;;;;;;3.93;2.20;;;20.40;66.60;;;;;;4955641;29;20453;-83
2023/03/29 22:24:08;;;;;;;2.90;2.53;;;20.40;66.50;;;;;;4955966;29;20446;-83
2023/03/29 22:26:34;;;;;;;4.40;3.10;;;20.30;66.50;;;;;;4955917;29;20493;-83
2023/03/29 22:29:01;;;;;;;3.83;3.03;;;20.30;66.50;;;;;;4955987;29;20477;-82
2023/03/29 22:31:29;;;;;;;3.67;3.13;;;20.50;66.60;;;;;;4956042;29;20453;-82
2023/03/29 22:33:57;;;;;;;3.10;2.77;;;20.30;66.40;;;;;;4938924;29;20452;-82
2023/03/29 22:36:26;;;;;;;3.47;2.90;;;20.30;66.50;;;;;;4956583;29;20489;-82
2023/03/29 22:38:54;;;;;;;3.30;2.83;;;20.30;66.40;;;;;;4957110;28;20465;-83
2023/03/29 22:41:22;;;;;;;3.23;2.90;;;20.30;66.40;;;;;;4958065;29;20445;-83
2023/03/29 22:43:52;;;;;;;3.27;2.20;;;20.30;66.50;;;;;;4959332;29;20426;-83
2023/03/29 22:46:19;;;;;;;3.30;2.50;;;20.30;66.40;;;;;;4955217;29;20453;-90
2023/03/29 22:48:46;;;;;;;2.70;2.50;;;20.40;66.50;;;;;;4955166;29;20450;-83
2023/03/29 22:51:13;;;;;;;2.40;2.20;;;20.30;66.30;;;;;;4955218;28;20452;-82
2023/03/29 22:53:41;;;;;;;4.13;2.80;;;20.30;66.40;;;;;;4958758;29;20442;-82
2023/03/29 22:56:09;;;;;;;3.83;2.30;;;20.30;66.30;;;;;;4958794;29;20438;-83
2023/03/29 22:58:36;;;;;;;2.93;2.43;;;20.30;66.40;;;;;;4959010;29;20444;-83
2023/03/29 23:01:03;;;;;;;6.30;3.50;;;20.30;66.40;;;;;;4959025;29;20513;-83
2023/03/29 23:03:30;;;;;;;2.80;2.50;;;20.30;66.40;;;;;;4958692;29;20438;-83
2023/03/29 23:06:01;;;;;;;4.80;2.47;;;20.30;66.30;;;;;;4958626;29;20809;-83
2023/03/29 23:08:28;;;;;;;7.77;2.80;;;20.40;66.40;;;;;;4958463;28;20469;-82
2023/03/29 23:10:56;;;;;;;2.27;2.07;;;20.30;66.40;;;;;;4958595;29;20444;-83
2023/03/29 23:13:24;;;;;;;3.10;2.33;;;20.30;66.30;;;;;;4958604;28;20438;-83
2023/03/29 23:15:52;;;;;;;3.67;2.90;;;20.30;66.30;;;;;;4958419;29;20937;-83
2023/03/29 23:18:21;;;;;;;3.70;2.80;;;20.30;66.30;;;;;;4958399;29;20986;-90
2023/03/29 23:20:48;;;;;;;3.73;2.73;;;20.30;66.30;;;;;;4958220;29;20524;-83
2023/03/29 23:23:15;;;;;;;4.60;3.00;;;20.30;66.30;;;;;;4958277;29;20820;-83
2023/03/29 23:25:44;;;;;;;2.90;2.60;;;20.30;66.30;;;;;;4958204;29;20487;-83
2023/03/29 23:28:12;;;;;;;2.80;2.33;;;20.30;66.30;;;;;;4958385;29;20440;-83
2023/03/29 23:30:39;;;;;;;3.53;2.17;;;20.30;66.30;;;;;;4958188;29;20441;-83
2023/03/29 23:33:09;;;;;;;2.57;2.07;;;20.30;66.30;;;;;;4958029;29;20948;-83
2023/03/29 23:35:36;;;;;;;3.70;2.43;;;20.30;66.30;;;;;;4958059;29;20452;-82
2023/03/29 23:38:04;;;;;;;3.10;2.70;;;20.30;66.30;;;;;;4958034;29;20500;-83
2023/03/29 23:40:31;;;;;;;3.03;2.67;;;20.30;66.20;;;;;;4957897;29;20460;-82
2023/03/29 23:42:58;;;;;;;2.23;1.80;;;20.30;66.20;;;;;;4958004;29;20986;-83
2023/03/29 23:45:27;;;;;;;3.27;2.17;;;20.30;66.20;;;;;;4958084;29;20449;-83
2023/03/29 23:47:55;;;;;;;2.90;2.60;;;20.30;66.30;;;;;;4957961;29;20500;-83
2023/03/29 23:50:22;;;;;;;2.10;1.90;;;20.30;66.20;;;;;;4957916;29;20450;-82
2023/03/29 23:52:50;;;;;;;2.30;1.90;;;20.30;66.30;;;;;;4957917;29;20942;-82
2023/03/29 23:55:18;;;;;;;3.30;3.00;;;20.30;66.20;;;;;;4957790;29;21091;-89
2023/03/29 23:57:45;;;;;;;2.10;1.63;;;20.30;66.20;;;;;;4957644;29;20499;-83
